sensor_id;sensor_type;location;lat;lon;timestamp;pressure;altitude;pressure_sealevel;temperature
71205;BMP180;58935;54.498;18.544;2023-04-24T00:00:28;99666.00;;;11.40
71205;BMP180;58935;54.498;18.544;2023-04-24T00:02:55;99670.20;;;11.40
71205;BMP180;58935;54.498;18.544;2023-04-24T00:05:22;99670.40;;;11.30
71205;BMP180;58935;54.498;18.544;2023-04-24T00:07:50;99671.40;;;11.30
71205;BMP180;58935;54.498;18.544;2023-04-24T00:10:18;99670.80;;;11.20
71205;BMP180;58935;54.498;18.544;2023-04-24T00:12:44;99670.80;;;11.10
71205;BMP180;58935;54.498;18.544;2023-04-24T00:15:10;99667.20;;;11.02
71205;BMP180;58935;54.498;18.544;2023-04-24T00:17:36;99667.60;;;11.00
71205;BMP180;58935;54.498;18.544;2023-04-24T00:20:05;99664.60;;;10.88
71205;BMP180;58935;54.498;18.544;2023-04-24T00:22:32;99663.60;;;10.80
71205;BMP180;58935;54.498;18.544;2023-04-24T00:24:58;99663.80;;;10.70
71205;BMP180;58935;54.498;18.544;2023-04-24T00:27:24;99667.20;;;10.62
71205;BMP180;58935;54.498;18.544;2023-04-24T00:29:49;99663.80;;;10.60
71205;BMP180;58935;54.498;18.544;2023-04-24T00:32:15;99663.20;;;10.60
71205;BMP180;58935;54.498;18.544;2023-04-24T00:34:41;99663.00;;;10.62
71205;BMP180;58935;54.498;18.544;2023-04-24T00:37:07;99663.80;;;10.70
71205;BMP180;58935;54.498;18.544;2023-04-24T00:39:33;99662.00;;;10.70
71205;BMP180;58935;54.498;18.544;2023-04-24T00:41:59;99656.40;;;10.70
71205;BMP180;58935;54.498;18.544;2023-04-24T00:44:25;99654.40;;;10.70
71205;BMP180;58935;54.498;18.544;2023-04-24T00:46:51;99652.80;;;10.70
71205;BMP180;58935;54.498;18.544;2023-04-24T00:49:22;99654.80;;;10.78
71205;BMP180;58935;54.498;18.544;2023-04-24T00:51:48;99656.40;;;10.80
71205;BMP180;58935;54.498;18.544;2023-04-24T00:54:15;99655.80;;;10.80
71205;BMP180;58935;54.498;18.544;2023-04-24T00:56:44;99657.00;;;10.80
71205;BMP180;58935;54.498;18.544;2023-04-24T00:59:18;99651.80;;;10.80
71205;BMP180;58935;54.498;18.544;2023-04-24T01:01:45;99650.80;;;10.80
71205;BMP180;58935;54.498;18.544;2023-04-24T01:04:12;99652.80;;;10.80
71205;BMP180;58935;54.498;18.544;2023-04-24T01:06:42;99659.20;;;10.84
71205;BMP180;58935;54.498;18.544;2023-04-24T01:09:10;99654.20;;;10.80
71205;BMP180;58935;54.498;18.544;2023-04-24T01:11:37;99647.60;;;10.80
71205;BMP180;58935;54.498;18.544;2023-04-24T01:14:03;99643.60;;;10.80
71205;BMP180;58935;54.498;18.544;2023-04-24T01:16:29;99643.80;;;10.80
71205;BMP180;58935;54.498;18.544;2023-04-24T01:18:55;99640.80;;;10.80
71205;BMP180;58935;54.498;18.544;2023-04-24T01:21:23;99647.20;;;10.80
71205;BMP180;58935;54.498;18.544;2023-04-24T01:23:53;99644.40;;;10.90
71205;BMP180;58935;54.498;18.544;2023-04-24T01:26:22;99643.80;;;10.90
71205;BMP180;58935;54.498;18.544;2023-04-24T01:28:48;99643.00;;;10.90
71205;BMP180;58935;54.498;18.544;2023-04-24T01:31:15;99647.20;;;10.90
71205;BMP180;58935;54.498;18.544;2023-04-24T01:33:42;99641.40;;;10.90
71205;BMP180;58935;54.498;18.544;2023-04-24T01:36:13;99643.40;;;10.90
71205;BMP180;58935;54.498;18.544;2023-04-24T01:38:41;99639.40;;;10.90
71205;BMP180;58935;54.498;18.544;2023-04-24T01:41:06;99638.00;;;10.90
71205;BMP180;58935;54.498;18.544;2023-04-24T01:43:32;99635.80;;;10.84
71205;BMP180;58935;54.498;18.544;2023-04-24T01:45:58;99641.80;;;10.82
71205;BMP180;58935;54.498;18.544;2023-04-24T01:48:23;99641.20;;;10.84
71205;BMP180;58935;54.498;18.544;2023-04-24T01:50:49;99640.60;;;10.80
71205;BMP180;58935;54.498;18.544;2023-04-24T01:53:15;99634.40;;;10.80
71205;BMP180;58935;54.498;18.544;2023-04-24T01:55:41;99630.60;;;10.80
71205;BMP180;58935;54.498;18.544;2023-04-24T01:58:06;99624.00;;;10.76
71205;BMP180;58935;54.498;18.544;2023-04-24T02:00:32;99632.00;;;10.70
71205;BMP180;58935;54.498;18.544;2023-04-24T02:02:58;99630.20;;;10.70
71205;BMP180;58935;54.498;18.544;2023-04-24T02:05:24;99634.40;;;10.70
71205;BMP180;58935;54.498;18.544;2023-04-24T02:07:52;99625.00;;;10.64
71205;BMP180;58935;54.498;18.544;2023-04-24T02:10:17;99625.60;;;10.60
71205;BMP180;58935;54.498;18.544;2023-04-24T02:12:43;99625.60;;;10.60
71205;BMP180;58935;54.498;18.544;2023-04-24T02:15:09;99620.00;;;10.50
71205;BMP180;58935;54.498;18.544;2023-04-24T02:17:35;99614.20;;;10.50
71205;BMP180;58935;54.498;18.544;2023-04-24T02:20:01;99615.40;;;10.40
71205;BMP180;58935;54.498;18.544;2023-04-24T02:22:27;99612.60;;;10.40
71205;BMP180;58935;54.498;18.544;2023-04-24T02:24:53;99614.20;;;10.36
71205;BMP180;58935;54.498;18.544;2023-04-24T02:27:20;99610.80;;;10.40
71205;BMP180;58935;54.498;18.544;2023-04-24T02:29:46;99604.40;;;10.40
71205;BMP180;58935;54.498;18.544;2023-04-24T02:32:11;99596.80;;;10.36
71205;BMP180;58935;54.498;18.544;2023-04-24T02:34:38;99596.60;;;10.30
71205;BMP180;58935;54.498;18.544;2023-04-24T02:37:03;99594.00;;;10.30
71205;BMP180;58935;54.498;18.544;2023-04-24T02:39:29;99585.80;;;10.30
71205;BMP180;58935;54.498;18.544;2023-04-24T02:41:54;99584.20;;;10.20
71205;BMP180;58935;54.498;18.544;2023-04-24T02:44:25;99584.20;;;10.20
71205;BMP180;58935;54.498;18.544;2023-04-24T02:46:50;99579.20;;;10.20
71205;BMP180;58935;54.498;18.544;2023-04-24T02:49:16;99581.40;;;10.20
71205;BMP180;58935;54.498;18.544;2023-04-24T02:51:41;99584.40;;;10.18
71205;BMP180;58935;54.498;18.544;2023-04-24T02:54:08;99579.60;;;10.10
71205;BMP180;58935;54.498;18.544;2023-04-24T02:56:38;99572.20;;;10.10
71205;BMP180;58935;54.498;18.544;2023-04-24T02:59:04;99573.40;;;10.04
71205;BMP180;58935;54.498;18.544;2023-04-24T03:01:29;99569.40;;;10.00
71205;BMP180;58935;54.498;18.544;2023-04-24T03:03:55;99565.00;;;9.92
71205;BMP180;58935;54.498;18.544;2023-04-24T03:06:20;99568.60;;;9.90
71205;BMP180;58935;54.498;18.544;2023-04-24T03:08:46;99567.80;;;9.90
71205;BMP180;58935;54.498;18.544;2023-04-24T03:11:12;99557.20;;;9.80
71205;BMP180;58935;54.498;18.544;2023-04-24T03:13:38;99558.00;;;9.80
71205;BMP180;58935;54.498;18.544;2023-04-24T03:16:03;99551.80;;;9.80
71205;BMP180;58935;54.498;18.544;2023-04-24T03:18:30;99552.20;;;9.80
71205;BMP180;58935;54.498;18.544;2023-04-24T03:20:55;99549.20;;;9.78
71205;BMP180;58935;54.498;18.544;2023-04-24T03:23:21;99555.20;;;9.70
71205;BMP180;58935;54.498;18.544;2023-04-24T03:25:46;99554.40;;;9.70
71205;BMP180;58935;54.498;18.544;2023-04-24T03:28:14;99565.20;;;9.72
71205;BMP180;58935;54.498;18.544;2023-04-24T03:30:40;99566.80;;;9.70
71205;BMP180;58935;54.498;18.544;2023-04-24T03:33:05;99556.80;;;9.70
71205;BMP180;58935;54.498;18.544;2023-04-24T03:35:31;99560.60;;;9.70
71205;BMP180;58935;54.498;18.544;2023-04-24T03:37:57;99556.00;;;9.70
71205;BMP180;58935;54.498;18.544;2023-04-24T03:40:22;99558.60;;;9.70
71205;BMP180;58935;54.498;18.544;2023-04-24T03:42:48;99560.20;;;9.70
71205;BMP180;58935;54.498;18.544;2023-04-24T03:45:13;99563.80;;;9.70
71205;BMP180;58935;54.498;18.544;2023-04-24T03:47:38;99563.40;;;9.70
71205;BMP180;58935;54.498;18.544;2023-04-24T03:50:05;99553.40;;;9.70
71205;BMP180;58935;54.498;18.544;2023-04-24T03:52:30;99559.60;;;9.70
71205;BMP180;58935;54.498;18.544;2023-04-24T03:54:56;99557.60;;;9.78
71205;BMP180;58935;54.498;18.544;2023-04-24T03:57:21;99553.60;;;9.80
71205;BMP180;58935;54.498;18.544;2023-04-24T03:59:47;99548.00;;;9.78
71205;BMP180;58935;54.498;18.544;2023-04-24T04:02:12;99553.80;;;9.70
71205;BMP180;58935;54.498;18.544;2023-04-24T04:04:38;99560.80;;;9.70
71205;BMP180;58935;54.498;18.544;2023-04-24T04:07:03;99553.60;;;9.70
71205;BMP180;58935;54.498;18.544;2023-04-24T04:09:31;99559.00;;;9.70
71205;BMP180;58935;54.498;18.544;2023-04-24T04:11:56;99565.60;;;9.70
71205;BMP180;58935;54.498;18.544;2023-04-24T04:14:22;99566.20;;;9.70
71205;BMP180;58935;54.498;18.544;2023-04-24T04:16:49;99563.20;;;9.70
71205;BMP180;58935;54.498;18.544;2023-04-24T04:19:14;99562.60;;;9.70
71205;BMP180;58935;54.498;18.544;2023-04-24T04:21:40;99560.80;;;9.70
71205;BMP180;58935;54.498;18.544;2023-04-24T04:24:05;99565.00;;;9.70
71205;BMP180;58935;54.498;18.544;2023-04-24T04:26:33;99573.60;;;9.68
71205;BMP180;58935;54.498;18.544;2023-04-24T04:28:59;99568.80;;;9.70
71205;BMP180;58935;54.498;18.544;2023-04-24T04:31:26;99575.60;;;9.70
71205;BMP180;58935;54.498;18.544;2023-04-24T04:33:51;99572.60;;;9.70
71205;BMP180;58935;54.498;18.544;2023-04-24T04:38:43;99569.80;;;9.80
71205;BMP180;58935;54.498;18.544;2023-04-24T04:41:10;99572.00;;;9.82
71205;BMP180;58935;54.498;18.544;2023-04-24T04:43:36;99572.60;;;9.90
71205;BMP180;58935;54.498;18.544;2023-04-24T04:46:03;99569.40;;;9.90
71205;BMP180;58935;54.498;18.544;2023-04-24T04:48:29;99557.60;;;9.90
71205;BMP180;58935;54.498;18.544;2023-04-24T04:50:57;99557.80;;;9.94
71205;BMP180;58935;54.498;18.544;2023-04-24T04:53:23;99556.20;;;10.00
71205;BMP180;58935;54.498;18.544;2023-04-24T04:55:49;99561.20;;;10.00
71205;BMP180;58935;54.498;18.544;2023-04-24T04:58:17;99563.00;;;10.00
71205;BMP180;58935;54.498;18.544;2023-04-24T05:00:42;99558.40;;;10.08
71205;BMP180;58935;54.498;18.544;2023-04-24T05:03:08;99562.40;;;10.10
71205;BMP180;58935;54.498;18.544;2023-04-24T05:05:35;99563.20;;;10.20
71205;BMP180;58935;54.498;18.544;2023-04-24T05:08:07;99554.40;;;10.20
71205;BMP180;58935;54.498;18.544;2023-04-24T05:10:32;99554.20;;;10.22
71205;BMP180;58935;54.498;18.544;2023-04-24T05:12:58;99550.60;;;10.26
71205;BMP180;58935;54.498;18.544;2023-04-24T05:15:23;99558.80;;;10.30
71205;BMP180;58935;54.498;18.544;2023-04-24T05:17:49;99555.20;;;10.30
71205;BMP180;58935;54.498;18.544;2023-04-24T05:20:15;99554.40;;;10.40
71205;BMP180;58935;54.498;18.544;2023-04-24T05:22:40;99543.60;;;10.40
71205;BMP180;58935;54.498;18.544;2023-04-24T05:25:06;99542.20;;;10.40
71205;BMP180;58935;54.498;18.544;2023-04-24T05:27:33;99542.00;;;10.40
71205;BMP180;58935;54.498;18.544;2023-04-24T05:29:58;99544.00;;;10.40
71205;BMP180;58935;54.498;18.544;2023-04-24T05:32:24;99549.40;;;10.44
71205;BMP180;58935;54.498;18.544;2023-04-24T05:34:49;99559.40;;;10.50
71205;BMP180;58935;54.498;18.544;2023-04-24T05:37:15;99551.20;;;10.50
71205;BMP180;58935;54.498;18.544;2023-04-24T05:39:41;99547.00;;;10.50
71205;BMP180;58935;54.498;18.544;2023-04-24T05:42:06;99542.00;;;10.60
71205;BMP180;58935;54.498;18.544;2023-04-24T05:44:32;99539.80;;;10.62
71205;BMP180;58935;54.498;18.544;2023-04-24T05:46:58;99540.60;;;10.70
71205;BMP180;58935;54.498;18.544;2023-04-24T05:49:23;99539.60;;;10.70
71205;BMP180;58935;54.498;18.544;2023-04-24T05:51:48;99547.80;;;10.70
71205;BMP180;58935;54.498;18.544;2023-04-24T05:54:14;99551.40;;;10.76
71205;BMP180;58935;54.498;18.544;2023-04-24T05:56:40;99547.40;;;10.80
71205;BMP180;58935;54.498;18.544;2023-04-24T05:59:08;99552.80;;;10.80
71205;BMP180;58935;54.498;18.544;2023-04-24T06:01:34;99551.20;;;10.86
71205;BMP180;58935;54.498;18.544;2023-04-24T06:03:59;99553.60;;;10.82
71205;BMP180;58935;54.498;18.544;2023-04-24T06:06:25;99547.60;;;10.90
71205;BMP180;58935;54.498;18.544;2023-04-24T06:08:52;99542.20;;;10.90
71205;BMP180;58935;54.498;18.544;2023-04-24T06:11:18;99533.80;;;11.00
71205;BMP180;58935;54.498;18.544;2023-04-24T06:13:44;99533.60;;;11.00
71205;BMP180;58935;54.498;18.544;2023-04-24T06:16:09;99531.20;;;11.00
71205;BMP180;58935;54.498;18.544;2023-04-24T06:18:37;99528.60;;;11.00
71205;BMP180;58935;54.498;18.544;2023-04-24T06:21:03;99526.20;;;11.04
71205;BMP180;58935;54.498;18.544;2023-04-24T06:23:29;99530.20;;;11.02
71205;BMP180;58935;54.498;18.544;2023-04-24T06:25:54;99535.80;;;11.10
71205;BMP180;58935;54.498;18.544;2023-04-24T06:28:20;99532.20;;;11.10
71205;BMP180;58935;54.498;18.544;2023-04-24T06:30:45;99538.20;;;11.10
71205;BMP180;58935;54.498;18.544;2023-04-24T06:33:11;99538.20;;;11.10
71205;BMP180;58935;54.498;18.544;2023-04-24T06:35:36;99534.80;;;11.10
71205;BMP180;58935;54.498;18.544;2023-04-24T06:38:03;99529.60;;;11.10
71205;BMP180;58935;54.498;18.544;2023-04-24T06:40:28;99531.80;;;11.10
71205;BMP180;58935;54.498;18.544;2023-04-24T06:42:54;99528.60;;;11.10
71205;BMP180;58935;54.498;18.544;2023-04-24T06:45:19;99523.80;;;11.10
71205;BMP180;58935;54.498;18.544;2023-04-24T06:47:45;99522.40;;;11.10
71205;BMP180;58935;54.498;18.544;2023-04-24T06:50:15;99522.40;;;11.10
71205;BMP180;58935;54.498;18.544;2023-04-24T06:52:41;99518.40;;;11.10
71205;BMP180;58935;54.498;18.544;2023-04-24T06:55:09;99522.80;;;11.20
71205;BMP180;58935;54.498;18.544;2023-04-24T06:57:36;99525.80;;;11.24
71205;BMP180;58935;54.498;18.544;2023-04-24T07:00:07;99522.40;;;11.30
71205;BMP180;58935;54.498;18.544;2023-04-24T07:02:35;99522.60;;;11.30
71205;BMP180;58935;54.498;18.544;2023-04-24T07:05:01;99527.60;;;11.30
71205;BMP180;58935;54.498;18.544;2023-04-24T07:07:26;99521.40;;;11.30
71205;BMP180;58935;54.498;18.544;2023-04-24T07:09:53;99515.80;;;11.30
71205;BMP180;58935;54.498;18.544;2023-04-24T07:12:19;99516.20;;;11.36
71205;BMP180;58935;54.498;18.544;2023-04-24T07:14:47;99515.60;;;11.30
71205;BMP180;58935;54.498;18.544;2023-04-24T07:17:13;99514.80;;;11.30
71205;BMP180;58935;54.498;18.544;2023-04-24T07:19:39;99509.80;;;11.20
71205;BMP180;58935;54.498;18.544;2023-04-24T07:22:04;99502.80;;;11.20
71205;BMP180;58935;54.498;18.544;2023-04-24T07:24:30;99497.80;;;11.10
71205;BMP180;58935;54.498;18.544;2023-04-24T07:26:57;99504.60;;;11.10
71205;BMP180;58935;54.498;18.544;2023-04-24T07:29:23;99498.20;;;11.06
71205;BMP180;58935;54.498;18.544;2023-04-24T07:31:48;99494.00;;;11.00
71205;BMP180;58935;54.498;18.544;2023-04-24T07:34:14;99491.20;;;11.00
71205;BMP180;58935;54.498;18.544;2023-04-24T07:36:41;99490.20;;;11.00
71205;BMP180;58935;54.498;18.544;2023-04-24T07:39:06;99484.20;;;11.06
71205;BMP180;58935;54.498;18.544;2023-04-24T07:41:33;99484.60;;;11.10
71205;BMP180;58935;54.498;18.544;2023-04-24T07:43:59;99493.20;;;11.10
71205;BMP180;58935;54.498;18.544;2023-04-24T07:46:24;99488.40;;;11.10
71205;BMP180;58935;54.498;18.544;2023-04-24T07:48:50;99482.00;;;11.10
71205;BMP180;58935;54.498;18.544;2023-04-24T07:51:19;99479.80;;;11.10
71205;BMP180;58935;54.498;18.544;2023-04-24T07:53:44;99476.40;;;11.10
71205;BMP180;58935;54.498;18.544;2023-04-24T07:56:10;99469.80;;;11.20
71205;BMP180;58935;54.498;18.544;2023-04-24T07:58:36;99482.40;;;11.20
71205;BMP180;58935;54.498;18.544;2023-04-24T08:01:02;99475.00;;;11.22
71205;BMP180;58935;54.498;18.544;2023-04-24T08:03:27;99476.00;;;11.30
71205;BMP180;58935;54.498;18.544;2023-04-24T08:05:53;99471.00;;;11.30
71205;BMP180;58935;54.498;18.544;2023-04-24T08:08:22;99472.40;;;11.30
71205;BMP180;58935;54.498;18.544;2023-04-24T08:10:49;99479.80;;;11.30
71205;BMP180;58935;54.498;18.544;2023-04-24T08:13:17;99484.00;;;11.34
71205;BMP180;58935;54.498;18.544;2023-04-24T08:15:45;99482.20;;;11.34
71205;BMP180;58935;54.498;18.544;2023-04-24T08:18:11;99482.20;;;11.38
71205;BMP180;58935;54.498;18.544;2023-04-24T08:20:37;99482.20;;;11.40
71205;BMP180;58935;54.498;18.544;2023-04-24T08:23:03;99480.80;;;11.40
71205;BMP180;58935;54.498;18.544;2023-04-24T08:25:31;99481.20;;;11.40
71205;BMP180;58935;54.498;18.544;2023-04-24T08:27:58;99484.20;;;11.50
71205;BMP180;58935;54.498;18.544;2023-04-24T08:30:24;99480.60;;;11.50
71205;BMP180;58935;54.498;18.544;2023-04-24T08:32:49;99476.80;;;11.60
71205;BMP180;58935;54.498;18.544;2023-04-24T08:35:17;99480.00;;;11.66
71205;BMP180;58935;54.498;18.544;2023-04-24T08:37:43;99480.80;;;11.68
71205;BMP180;58935;54.498;18.544;2023-04-24T08:40:14;99479.20;;;11.70
71205;BMP180;58935;54.498;18.544;2023-04-24T08:42:43;99477.00;;;11.70
71205;BMP180;58935;54.498;18.544;2023-04-24T08:45:13;99472.60;;;11.78
71205;BMP180;58935;54.498;18.544;2023-04-24T08:47:40;99470.00;;;11.82
71205;BMP180;58935;54.498;18.544;2023-04-24T08:50:08;99458.00;;;11.90
71205;BMP180;58935;54.498;18.544;2023-04-24T08:52:37;99450.80;;;11.90
71205;BMP180;58935;54.498;18.544;2023-04-24T08:55:03;99458.80;;;11.90
71205;BMP180;58935;54.498;18.544;2023-04-24T08:57:30;99457.40;;;11.88
71205;BMP180;58935;54.498;18.544;2023-04-24T08:59:58;99461.00;;;11.80
71205;BMP180;58935;54.498;18.544;2023-04-24T09:02:25;99466.80;;;11.70
71205;BMP180;58935;54.498;18.544;2023-04-24T09:04:51;99461.00;;;11.70
71205;BMP180;58935;54.498;18.544;2023-04-24T09:07:19;99454.60;;;11.70
71205;BMP180;58935;54.498;18.544;2023-04-24T09:09:48;99460.00;;;11.76
71205;BMP180;58935;54.498;18.544;2023-04-24T09:12:17;99467.20;;;11.80
71205;BMP180;58935;54.498;18.544;2023-04-24T09:14:42;99464.00;;;11.80
71205;BMP180;58935;54.498;18.544;2023-04-24T09:17:11;99460.20;;;11.80
71205;BMP180;58935;54.498;18.544;2023-04-24T09:19:37;99462.20;;;11.80
71205;BMP180;58935;54.498;18.544;2023-04-24T09:22:23;99460.40;;;11.84
71205;BMP180;58935;54.498;18.544;2023-04-24T09:25:03;99459.00;;;11.90
71205;BMP180;58935;54.498;18.544;2023-04-24T09:27:31;99456.20;;;12.00
71205;BMP180;58935;54.498;18.544;2023-04-24T09:29:58;99454.80;;;12.10
71205;BMP180;58935;54.498;18.544;2023-04-24T09:32:24;99456.20;;;12.20
71205;BMP180;58935;54.498;18.544;2023-04-24T09:35:14;99452.40;;;12.24
71205;BMP180;58935;54.498;18.544;2023-04-24T09:37:45;99450.60;;;12.30
71205;BMP180;58935;54.498;18.544;2023-04-24T09:40:17;99446.40;;;12.34
71205;BMP180;58935;54.498;18.544;2023-04-24T09:42:53;99444.60;;;12.40
71205;BMP180;58935;54.498;18.544;2023-04-24T09:45:20;99446.80;;;12.50
71205;BMP180;58935;54.498;18.544;2023-04-24T09:47:45;99449.80;;;12.56
71205;BMP180;58935;54.498;18.544;2023-04-24T09:50:16;99443.00;;;12.60
71205;BMP180;58935;54.498;18.544;2023-04-24T09:52:45;99440.60;;;12.62
71205;BMP180;58935;54.498;18.544;2023-04-24T09:55:19;99436.20;;;12.70
71205;BMP180;58935;54.498;18.544;2023-04-24T09:57:50;99434.40;;;12.80
71205;BMP180;58935;54.498;18.544;2023-04-24T10:00:21;99429.60;;;12.88
71205;BMP180;58935;54.498;18.544;2023-04-24T10:02:50;99427.40;;;12.90
71205;BMP180;58935;54.498;18.544;2023-04-24T10:05:23;99425.60;;;13.04
71205;BMP180;58935;54.498;18.544;2023-04-24T10:07:51;99411.20;;;13.20
71205;BMP180;58935;54.498;18.544;2023-04-24T10:10:17;99415.60;;;13.40
71205;BMP180;58935;54.498;18.544;2023-04-24T10:12:44;99407.00;;;13.62
71205;BMP180;58935;54.498;18.544;2023-04-24T10:15:10;99407.20;;;13.82
71205;BMP180;58935;54.498;18.544;2023-04-24T10:17:39;99403.40;;;14.00
71205;BMP180;58935;54.498;18.544;2023-04-24T10:20:07;99405.80;;;14.14
71205;BMP180;58935;54.498;18.544;2023-04-24T10:22:34;99409.40;;;14.30
71205;BMP180;58935;54.498;18.544;2023-04-24T10:25:03;99404.20;;;14.40
71205;BMP180;58935;54.498;18.544;2023-04-24T10:27:33;99403.60;;;14.60
71205;BMP180;58935;54.498;18.544;2023-04-24T10:30:01;99390.00;;;14.80
71205;BMP180;58935;54.498;18.544;2023-04-24T10:32:26;99397.40;;;14.94
71205;BMP180;58935;54.498;18.544;2023-04-24T10:34:52;99396.40;;;15.10
71205;BMP180;58935;54.498;18.544;2023-04-24T10:37:18;99394.20;;;15.30
71205;BMP180;58935;54.498;18.544;2023-04-24T10:39:50;99390.00;;;15.40
71205;BMP180;58935;54.498;18.544;2023-04-24T10:42:17;99391.00;;;15.60
71205;BMP180;58935;54.498;18.544;2023-04-24T10:44:43;99387.40;;;15.70
71205;BMP180;58935;54.498;18.544;2023-04-24T10:47:13;99388.00;;;15.80
71205;BMP180;58935;54.498;18.544;2023-04-24T10:49:39;99383.80;;;15.86
71205;BMP180;58935;54.498;18.544;2023-04-24T10:52:05;99387.60;;;15.94
71205;BMP180;58935;54.498;18.544;2023-04-24T10:54:42;99382.60;;;16.10
71205;BMP180;58935;54.498;18.544;2023-04-24T10:59:49;99377.80;;;16.36
71205;BMP180;58935;54.498;18.544;2023-04-24T11:02:17;99376.40;;;16.50
71205;BMP180;58935;54.498;18.544;2023-04-24T11:04:43;99378.20;;;16.70
71205;BMP180;58935;54.498;18.544;2023-04-24T11:07:14;99377.60;;;16.90
71205;BMP180;58935;54.498;18.544;2023-04-24T11:09:42;99369.80;;;17.10
71205;BMP180;58935;54.498;18.544;2023-04-24T11:12:11;99371.60;;;17.28
71205;BMP180;58935;54.498;18.544;2023-04-24T11:17:32;99372.80;;;17.48
71205;BMP180;58935;54.498;18.544;2023-04-24T11:20:05;99369.00;;;17.50
71205;BMP180;58935;54.498;18.544;2023-04-24T11:22:34;99370.40;;;17.60
71205;BMP180;58935;54.498;18.544;2023-04-24T11:25:03;99365.00;;;17.74
71205;BMP180;58935;54.498;18.544;2023-04-24T11:27:40;99362.20;;;17.94
71205;BMP180;58935;54.498;18.544;2023-04-24T11:30:06;99357.00;;;18.20
71205;BMP180;58935;54.498;18.544;2023-04-24T11:32:39;99357.60;;;18.34
71205;BMP180;58935;54.498;18.544;2023-04-24T11:35:17;99357.80;;;18.54
71205;BMP180;58935;54.498;18.544;2023-04-24T11:37:48;99354.60;;;18.72
71205;BMP180;58935;54.498;18.544;2023-04-24T11:40:17;99357.80;;;18.90
71205;BMP180;58935;54.498;18.544;2023-04-24T11:42:48;99356.60;;;19.10
71205;BMP180;58935;54.498;18.544;2023-04-24T11:45:18;99352.20;;;19.26
71205;BMP180;58935;54.498;18.544;2023-04-24T11:47:45;99353.00;;;19.30
71205;BMP180;58935;54.498;18.544;2023-04-24T11:50:14;99358.00;;;19.30
71205;BMP180;58935;54.498;18.544;2023-04-24T11:55:27;99360.80;;;19.40
71205;BMP180;58935;54.498;18.544;2023-04-24T11:57:57;99356.40;;;19.50
71205;BMP180;58935;54.498;18.544;2023-04-24T12:00:29;99354.60;;;19.42
71205;BMP180;58935;54.498;18.544;2023-04-24T12:05:29;99351.00;;;19.40
71205;BMP180;58935;54.498;18.544;2023-04-24T12:07:57;99344.80;;;19.50
71205;BMP180;58935;54.498;18.544;2023-04-24T12:10:25;99343.60;;;19.58
71205;BMP180;58935;54.498;18.544;2023-04-24T12:12:52;99342.20;;;19.60
71205;BMP180;58935;54.498;18.544;2023-04-24T12:15:20;99339.40;;;19.70
71205;BMP180;58935;54.498;18.544;2023-04-24T12:17:47;99336.40;;;19.80
71205;BMP180;58935;54.498;18.544;2023-04-24T12:20:14;99329.00;;;20.00
71205;BMP180;58935;54.498;18.544;2023-04-24T12:22:48;99322.00;;;20.12
71205;BMP180;58935;54.498;18.544;2023-04-24T12:25:17;99320.60;;;20.20
71205;BMP180;58935;54.498;18.544;2023-04-24T12:27:45;99319.20;;;20.20
71205;BMP180;58935;54.498;18.544;2023-04-24T12:30:16;99311.80;;;20.06
71205;BMP180;58935;54.498;18.544;2023-04-24T12:32:48;99312.00;;;19.90
71205;BMP180;58935;54.498;18.544;2023-04-24T12:35:20;99311.00;;;19.80
71205;BMP180;58935;54.498;18.544;2023-04-24T12:37:48;99307.60;;;19.70
71205;BMP180;58935;54.498;18.544;2023-04-24T12:40:16;99299.40;;;19.60
71205;BMP180;58935;54.498;18.544;2023-04-24T12:42:48;99297.60;;;19.60
71205;BMP180;58935;54.498;18.544;2023-04-24T12:45:16;99293.00;;;19.56
71205;BMP180;58935;54.498;18.544;2023-04-24T12:47:44;99283.00;;;19.50
71205;BMP180;58935;54.498;18.544;2023-04-24T12:50:14;99285.20;;;19.50
71205;BMP180;58935;54.498;18.544;2023-04-24T12:52:42;99273.60;;;19.50
71205;BMP180;58935;54.498;18.544;2023-04-24T12:55:11;99277.20;;;19.50
71205;BMP180;58935;54.498;18.544;2023-04-24T12:57:39;99270.60;;;19.60
71205;BMP180;58935;54.498;18.544;2023-04-24T13:00:07;99263.20;;;19.72
71205;BMP180;58935;54.498;18.544;2023-04-24T13:02:34;99262.40;;;20.00
71205;BMP180;58935;54.498;18.544;2023-04-24T13:05:00;99257.80;;;20.40
71205;BMP180;58935;54.498;18.544;2023-04-24T13:07:27;99252.40;;;20.80
71205;BMP180;58935;54.498;18.544;2023-04-24T13:09:55;99247.80;;;21.14
71205;BMP180;58935;54.498;18.544;2023-04-24T13:12:21;99251.20;;;21.38
71205;BMP180;58935;54.498;18.544;2023-04-24T13:14:49;99250.20;;;21.42
71205;BMP180;58935;54.498;18.544;2023-04-24T13:17:17;99251.40;;;21.50
71205;BMP180;58935;54.498;18.544;2023-04-24T13:19:44;99252.80;;;21.50
71205;BMP180;58935;54.498;18.544;2023-04-24T13:22:11;99242.60;;;21.50
71205;BMP180;58935;54.498;18.544;2023-04-24T13:24:38;99239.80;;;21.50
71205;BMP180;58935;54.498;18.544;2023-04-24T13:27:06;99233.40;;;21.40
71205;BMP180;58935;54.498;18.544;2023-04-24T13:29:35;99232.00;;;21.30
71205;BMP180;58935;54.498;18.544;2023-04-24T13:32:00;99231.60;;;21.20
71205;BMP180;58935;54.498;18.544;2023-04-24T13:34:26;99223.20;;;21.10
71205;BMP180;58935;54.498;18.544;2023-04-24T13:36:55;99209.40;;;21.10
71205;BMP180;58935;54.498;18.544;2023-04-24T13:39:24;99214.60;;;21.10
71205;BMP180;58935;54.498;18.544;2023-04-24T13:41:51;99214.00;;;21.10
71205;BMP180;58935;54.498;18.544;2023-04-24T13:44:18;99205.00;;;21.10
71205;BMP180;58935;54.498;18.544;2023-04-24T13:46:47;99204.80;;;21.10
71205;BMP180;58935;54.498;18.544;2023-04-24T13:49:14;99198.80;;;21.20
71205;BMP180;58935;54.498;18.544;2023-04-24T13:51:42;99195.20;;;21.50
71205;BMP180;58935;54.498;18.544;2023-04-24T13:54:08;99202.80;;;21.70
71205;BMP180;58935;54.498;18.544;2023-04-24T13:56:33;99192.80;;;21.70
71205;BMP180;58935;54.498;18.544;2023-04-24T13:58:59;99186.60;;;21.70
71205;BMP180;58935;54.498;18.544;2023-04-24T14:01:25;99185.40;;;21.70
71205;BMP180;58935;54.498;18.544;2023-04-24T14:03:53;99184.20;;;21.80
71205;BMP180;58935;54.498;18.544;2023-04-24T14:06:19;99183.20;;;21.90
71205;BMP180;58935;54.498;18.544;2023-04-24T14:08:49;99176.60;;;22.10
71205;BMP180;58935;54.498;18.544;2023-04-24T14:11:16;99167.00;;;22.30